sensor_id;sensor_type;location;lat;lon;timestamp;P1;P2;P0
67892;PMS7003;54688;52.376;16.744;2024-01-30T00:00:35;78;62;
67892;PMS7003;54688;52.376;16.744;2024-01-30T00:04:18;72;55;
67892;PMS7003;54688;52.376;16.744;2024-01-30T00:07:20;74;53;
67892;PMS7003;54688;52.376;16.744;2024-01-30T00:10:22;72;52;
67892;PMS7003;54688;52.376;16.744;2024-01-30T00:13:25;70;55;
67892;PMS7003;54688;52.376;16.744;2024-01-30T00:16:27;74;56;
67892;PMS7003;54688;52.376;16.744;2024-01-30T00:19:29;73;50;
67892;PMS7003;54688;52.376;16.744;2024-01-30T00:22:31;73;55;
67892;PMS7003;54688;52.376;16.744;2024-01-30T00:25:33;75;54;
67892;PMS7003;54688;52.376;16.744;2024-01-30T00:28:36;70;53;
67892;PMS7003;54688;52.376;16.744;2024-01-30T00:31:38;65;50;
67892;PMS7003;54688;52.376;16.744;2024-01-30T00:34:41;70;54;
67892;PMS7003;54688;52.376;16.744;2024-01-30T00:37:43;72;50;
67892;PMS7003;54688;52.376;16.744;2024-01-30T00:40:46;63;50;
67892;PMS7003;54688;52.376;16.744;2024-01-30T00:43:48;67;49;
67892;PMS7003;54688;52.376;16.744;2024-01-30T00:46:50;62;48;
67892;PMS7003;54688;52.376;16.744;2024-01-30T00:49:53;60;47;
67892;PMS7003;54688;52.376;16.744;2024-01-30T00:52:55;64;50;
67892;PMS7003;54688;52.376;16.744;2024-01-30T00:55:57;66;47;
67892;PMS7003;54688;52.376;16.744;2024-01-30T00:58:59;67;50;
67892;PMS7003;54688;52.376;16.744;2024-01-30T01:02:02;67;51;
67892;PMS7003;54688;52.376;16.744;2024-01-30T01:05:06;61;49;
67892;PMS7003;54688;52.376;16.744;2024-01-30T01:08:08;57;46;
67892;PMS7003;54688;52.376;16.744;2024-01-30T01:11:10;67;50;
67892;PMS7003;54688;52.376;16.744;2024-01-30T01:14:12;61;48;
67892;PMS7003;54688;52.376;16.744;2024-01-30T01:17:14;56;46;
67892;PMS7003;54688;52.376;16.744;2024-01-30T01:20:16;60;48;
67892;PMS7003;54688;52.376;16.744;2024-01-30T01:23:18;65;48;
67892;PMS7003;54688;52.376;16.744;2024-01-30T01:26:20;62;44;
67892;PMS7003;54688;52.376;16.744;2024-01-30T01:29:22;53;41;
67892;PMS7003;54688;52.376;16.744;2024-01-30T01:32:25;59;46;
67892;PMS7003;54688;52.376;16.744;2024-01-30T01:35:28;56;43;
67892;PMS7003;54688;52.376;16.744;2024-01-30T01:38:30;57;44;
67892;PMS7003;54688;52.376;16.744;2024-01-30T01:41:32;53;44;
67892;PMS7003;54688;52.376;16.744;2024-01-30T01:44:35;47;41;
67892;PMS7003;54688;52.376;16.744;2024-01-30T01:47:37;51;42;
67892;PMS7003;54688;52.376;16.744;2024-01-30T01:50:39;54;43;
67892;PMS7003;54688;52.376;16.744;2024-01-30T01:53:42;53;43;
67892;PMS7003;54688;52.376;16.744;2024-01-30T01:56:44;56;42;
67892;PMS7003;54688;52.376;16.744;2024-01-30T01:59:47;56;43;
67892;PMS7003;54688;52.376;16.744;2024-01-30T02:02:50;56;44;
67892;PMS7003;54688;52.376;16.744;2024-01-30T02:05:53;57;43;
67892;PMS7003;54688;52.376;16.744;2024-01-30T02:08:56;57;43;
67892;PMS7003;54688;52.376;16.744;2024-01-30T02:11:58;59;47;
67892;PMS7003;54688;52.376;16.744;2024-01-30T02:15:00;54;41;
67892;PMS7003;54688;52.376;16.744;2024-01-30T02:18:02;58;44;
67892;PMS7003;54688;52.376;16.744;2024-01-30T02:21:04;60;46;
67892;PMS7003;54688;52.376;16.744;2024-01-30T02:24:06;63;46;
67892;PMS7003;54688;52.376;16.744;2024-01-30T02:27:09;56;46;
67892;PMS7003;54688;52.376;16.744;2024-01-30T02:30:12;57;45;
67892;PMS7003;54688;52.376;16.744;2024-01-30T02:33:15;61;47;
67892;PMS7003;54688;52.376;16.744;2024-01-30T02:36:18;58;43;
67892;PMS7003;54688;52.376;16.744;2024-01-30T02:39:20;58;42;
67892;PMS7003;54688;52.376;16.744;2024-01-30T02:42:23;54;43;
67892;PMS7003;54688;52.376;16.744;2024-01-30T02:45:25;58;47;
67892;PMS7003;54688;52.376;16.744;2024-01-30T02:48:27;67;49;
67892;PMS7003;54688;52.376;16.744;2024-01-30T02:51:29;58;45;
67892;PMS7003;54688;52.376;16.744;2024-01-30T02:54:32;65;47;
67892;PMS7003;54688;52.376;16.744;2024-01-30T02:57:34;63;47;
67892;PMS7003;54688;52.376;16.744;2024-01-30T03:00:36;61;44;
67892;PMS7003;54688;52.376;16.744;2024-01-30T03:03:40;64;45;
67892;PMS7003;54688;52.376;16.744;2024-01-30T03:06:44;62;48;
67892;PMS7003;54688;52.376;16.744;2024-01-30T03:09:46;57;46;
67892;PMS7003;54688;52.376;16.744;2024-01-30T03:12:49;61;46;
67892;PMS7003;54688;52.376;16.744;2024-01-30T03:15:51;58;46;
67892;PMS7003;54688;52.376;16.744;2024-01-30T03:18:53;60;45;
67892;PMS7003;54688;52.376;16.744;2024-01-30T03:21:56;61;46;
67892;PMS7003;54688;52.376;16.744;2024-01-30T03:24:58;74;56;
67892;PMS7003;54688;52.376;16.744;2024-01-30T03:28:00;65;48;
67892;PMS7003;54688;52.376;16.744;2024-01-30T03:31:03;60;47;
67892;PMS7003;54688;52.376;16.744;2024-01-30T03:34:06;63;48;
67892;PMS7003;54688;52.376;16.744;2024-01-30T03:37:07;58;43;
67892;PMS7003;54688;52.376;16.744;2024-01-30T03:40:10;62;47;
67892;PMS7003;54688;52.376;16.744;2024-01-30T03:43:12;58;46;
67892;PMS7003;54688;52.376;16.744;2024-01-30T03:46:14;53;45;
67892;PMS7003;54688;52.376;16.744;2024-01-30T03:49:17;57;45;
67892;PMS7003;54688;52.376;16.744;2024-01-30T03:52:19;54;43;
67892;PMS7003;54688;52.376;16.744;2024-01-30T03:55:21;51;44;
67892;PMS7003;54688;52.376;16.744;2024-01-30T03:58:25;55;41;
67892;PMS7003;54688;52.376;16.744;2024-01-30T04:01:27;56;42;
67892;PMS7003;54688;52.376;16.744;2024-01-30T04:04:30;55;43;
67892;PMS7003;54688;52.376;16.744;2024-01-30T04:07:32;53;40;
67892;PMS7003;54688;52.376;16.744;2024-01-30T04:10:35;53;43;
67892;PMS7003;54688;52.376;16.744;2024-01-30T04:13:37;56;42;
67892;PMS7003;54688;52.376;16.744;2024-01-30T04:16:39;61;45;
67892;PMS7003;54688;52.376;16.744;2024-01-30T04:19:41;61;47;
67892;PMS7003;54688;52.376;16.744;2024-01-30T04:22:44;57;42;
67892;PMS7003;54688;52.376;16.744;2024-01-30T04:25:46;56;43;
67892;PMS7003;54688;52.376;16.744;2024-01-30T04:28:49;54;44;
67892;PMS7003;54688;52.376;16.744;2024-01-30T04:31:51;51;43;
67892;PMS7003;54688;52.376;16.744;2024-01-30T04:34:53;53;40;
67892;PMS7003;54688;52.376;16.744;2024-01-30T04:37:56;52;39;
67892;PMS7003;54688;52.376;16.744;2024-01-30T04:40:58;52;41;
67892;PMS7003;54688;52.376;16.744;2024-01-30T04:44:00;47;35;
67892;PMS7003;54688;52.376;16.744;2024-01-30T04:47:02;51;38;
67892;PMS7003;54688;52.376;16.744;2024-01-30T04:50:05;52;41;
67892;PMS7003;54688;52.376;16.744;2024-01-30T04:53:08;43;36;
67892;PMS7003;54688;52.376;16.744;2024-01-30T04:56:10;50;41;
67892;PMS7003;54688;52.376;16.744;2024-01-30T04:59:12;55;37;
67892;PMS7003;54688;52.376;16.744;2024-01-30T05:02:14;50;39;
67892;PMS7003;54688;52.376;16.744;2024-01-30T05:05:17;49;35;
67892;PMS7003;54688;52.376;16.744;2024-01-30T05:08:19;43;37;
67892;PMS7003;54688;52.376;16.744;2024-01-30T05:11:22;49;38;
67892;PMS7003;54688;52.376;16.744;2024-01-30T05:14:24;46;38;
67892;PMS7003;54688;52.376;16.744;2024-01-30T05:17:27;51;38;
67892;PMS7003;54688;52.376;16.744;2024-01-30T05:20:29;49;39;
67892;PMS7003;54688;52.376;16.744;2024-01-30T05:23:32;50;40;
67892;PMS7003;54688;52.376;16.744;2024-01-30T05:26:34;51;43;
67892;PMS7003;54688;52.376;16.744;2024-01-30T05:29:37;49;38;
67892;PMS7003;54688;52.376;16.744;2024-01-30T05:32:39;51;38;
67892;PMS7003;54688;52.376;16.744;2024-01-30T05:35:41;54;41;
67892;PMS7003;54688;52.376;16.744;2024-01-30T05:38:44;51;42;
67892;PMS7003;54688;52.376;16.744;2024-01-30T05:41:46;45;37;
67892;PMS7003;54688;52.376;16.744;2024-01-30T05:44:49;49;37;
67892;PMS7003;54688;52.376;16.744;2024-01-30T05:47:50;49;40;
67892;PMS7003;54688;52.376;16.744;2024-01-30T05:50:52;50;41;
67892;PMS7003;54688;52.376;16.744;2024-01-30T05:53:54;48;36;
67892;PMS7003;54688;52.376;16.744;2024-01-30T05:56:57;43;34;
67892;PMS7003;54688;52.376;16.744;2024-01-30T05:59:59;48;38;
67892;PMS7003;54688;52.376;16.744;2024-01-30T06:03:01;51;38;
67892;PMS7003;54688;52.376;16.744;2024-01-30T06:06:03;48;38;
67892;PMS7003;54688;52.376;16.744;2024-01-30T06:09:06;57;45;
67892;PMS7003;54688;52.376;16.744;2024-01-30T06:12:08;65;49;
67892;PMS7003;54688;52.376;16.744;2024-01-30T06:15:10;54;39;
67892;PMS7003;54688;52.376;16.744;2024-01-30T06:18:12;48;40;
67892;PMS7003;54688;52.376;16.744;2024-01-30T06:21:15;55;40;
67892;PMS7003;54688;52.376;16.744;2024-01-30T06:24:17;58;45;
67892;PMS7003;54688;52.376;16.744;2024-01-30T06:27:20;60;47;
67892;PMS7003;54688;52.376;16.744;2024-01-30T06:30:22;56;45;
67892;PMS7003;54688;52.376;16.744;2024-01-30T06:33:24;55;41;
67892;PMS7003;54688;52.376;16.744;2024-01-30T06:36:26;55;41;
67892;PMS7003;54688;52.376;16.744;2024-01-30T06:39:28;54;43;
67892;PMS7003;54688;52.376;16.744;2024-01-30T06:42:30;55;42;
67892;PMS7003;54688;52.376;16.744;2024-01-30T06:45:33;61;46;
67892;PMS7003;54688;52.376;16.744;2024-01-30T06:48:35;74;54;
67892;PMS7003;54688;52.376;16.744;2024-01-30T06:51:37;76;56;
67892;PMS7003;54688;52.376;16.744;2024-01-30T06:54:39;70;53;
67892;PMS7003;54688;52.376;16.744;2024-01-30T06:57:41;63;47;
67892;PMS7003;54688;52.376;16.744;2024-01-30T07:00:44;68;53;
67892;PMS7003;54688;52.376;16.744;2024-01-30T07:03:46;66;51;
67892;PMS7003;54688;52.376;16.744;2024-01-30T07:06:49;59;45;
67892;PMS7003;54688;52.376;16.744;2024-01-30T07:09:51;55;42;
67892;PMS7003;54688;52.376;16.744;2024-01-30T07:12:53;58;43;
67892;PMS7003;54688;52.376;16.744;2024-01-30T07:15:55;59;46;
67892;PMS7003;54688;52.376;16.744;2024-01-30T07:18:57;55;45;
67892;PMS7003;54688;52.376;16.744;2024-01-30T07:22:00;55;44;
67892;PMS7003;54688;52.376;16.744;2024-01-30T07:25:04;53;42;
67892;PMS7003;54688;52.376;16.744;2024-01-30T07:28:06;66;48;
67892;PMS7003;54688;52.376;16.744;2024-01-30T07:31:07;77;57;
67892;PMS7003;54688;52.376;16.744;2024-01-30T07:34:10;72;55;
67892;PMS7003;54688;52.376;16.744;2024-01-30T07:37:12;59;48;
67892;PMS7003;54688;52.376;16.744;2024-01-30T07:40:14;54;43;
67892;PMS7003;54688;52.376;16.744;2024-01-30T07:43:16;51;42;
67892;PMS7003;54688;52.376;16.744;2024-01-30T07:46:18;49;37;
67892;PMS7003;54688;52.376;16.744;2024-01-30T07:49:20;50;39;
67892;PMS7003;54688;52.376;16.744;2024-01-30T07:52:22;56;45;
67892;PMS7003;54688;52.376;16.744;2024-01-30T07:55:25;69;52;
67892;PMS7003;54688;52.376;16.744;2024-01-30T07:58:27;59;44;
67892;PMS7003;54688;52.376;16.744;2024-01-30T08:01:29;50;40;
67892;PMS7003;54688;52.376;16.744;2024-01-30T08:04:31;53;43;
67892;PMS7003;54688;52.376;16.744;2024-01-30T08:07:34;56;44;
67892;PMS7003;54688;52.376;16.744;2024-01-30T08:10:36;53;42;
67892;PMS7003;54688;52.376;16.744;2024-01-30T08:13:38;55;45;
67892;PMS7003;54688;52.376;16.744;2024-01-30T08:16:40;50;41;
67892;PMS7003;54688;52.376;16.744;2024-01-30T08:19:43;51;41;
67892;PMS7003;54688;52.376;16.744;2024-01-30T08:22:45;48;37;
67892;PMS7003;54688;52.376;16.744;2024-01-30T08:25:47;46;35;
67892;PMS7003;54688;52.376;16.744;2024-01-30T08:28:49;39;33;
67892;PMS7003;54688;52.376;16.744;2024-01-30T08:31:51;47;34;
67892;PMS7003;54688;52.376;16.744;2024-01-30T08:34:53;65;48;
67892;PMS7003;54688;52.376;16.744;2024-01-30T08:37:56;73;59;
67892;PMS7003;54688;52.376;16.744;2024-01-30T08:40:58;62;45;
67892;PMS7003;54688;52.376;16.744;2024-01-30T08:43:59;47;36;
67892;PMS7003;54688;52.376;16.744;2024-01-30T08:47:02;54;39;
67892;PMS7003;54688;52.376;16.744;2024-01-30T08:50:05;52;39;
67892;PMS7003;54688;52.376;16.744;2024-01-30T08:53:07;50;38;
67892;PMS7003;54688;52.376;16.744;2024-01-30T08:56:09;62;46;
67892;PMS7003;54688;52.376;16.744;2024-01-30T08:59:12;70;52;
67892;PMS7003;54688;52.376;16.744;2024-01-30T09:02:15;67;51;
67892;PMS7003;54688;52.376;16.744;2024-01-30T09:05:18;61;48;
67892;PMS7003;54688;52.376;16.744;2024-01-30T09:08:20;56;45;
67892;PMS7003;54688;52.376;16.744;2024-01-30T09:11:22;64;48;
67892;PMS7003;54688;52.376;16.744;2024-01-30T09:14:24;61;49;
67892;PMS7003;54688;52.376;16.744;2024-01-30T09:17:26;52;40;
67892;PMS7003;54688;52.376;16.744;2024-01-30T09:20:28;55;41;
67892;PMS7003;54688;52.376;16.744;2024-01-30T09:23:30;42;35;
67892;PMS7003;54688;52.376;16.744;2024-01-30T09:26:32;49;37;
67892;PMS7003;54688;52.376;16.744;2024-01-30T09:29:34;47;38;
67892;PMS7003;54688;52.376;16.744;2024-01-30T09:32:36;45;36;
67892;PMS7003;54688;52.376;16.744;2024-01-30T09:35:39;40;33;
67892;PMS7003;54688;52.376;16.744;2024-01-30T09:38:41;42;35;
67892;PMS7003;54688;52.376;16.744;2024-01-30T09:41:48;43;35;
67892;PMS7003;54688;52.376;16.744;2024-01-30T09:44:51;44;38;
67892;PMS7003;54688;52.376;16.744;2024-01-30T09:47:53;42;35;
67892;PMS7003;54688;52.376;16.744;2024-01-30T09:50:56;50;40;
67892;PMS7003;54688;52.376;16.744;2024-01-30T09:53:59;45;36;
67892;PMS7003;54688;52.376;16.744;2024-01-30T09:57:02;40;34;
67892;PMS7003;54688;52.376;16.744;2024-01-30T10:00:05;42;34;
67892;PMS7003;54688;52.376;16.744;2024-01-30T10:03:08;39;34;
67892;PMS7003;54688;52.376;16.744;2024-01-30T10:06:10;47;35;
67892;PMS7003;54688;52.376;16.744;2024-01-30T10:09:14;46;38;
67892;PMS7003;54688;52.376;16.744;2024-01-30T10:12:16;48;39;
67892;PMS7003;54688;52.376;16.744;2024-01-30T10:15:18;50;40;
67892;PMS7003;54688;52.376;16.744;2024-01-30T10:18:22;65;47;
67892;PMS7003;54688;52.376;16.744;2024-01-30T10:21:24;62;46;
67892;PMS7003;54688;52.376;16.744;2024-01-30T10:24:26;57;46;
67892;PMS7003;54688;52.376;16.744;2024-01-30T10:27:28;55;43;
67892;PMS7003;54688;52.376;16.744;2024-01-30T10:30:31;50;40;
67892;PMS7003;54688;52.376;16.744;2024-01-30T10:33:32;55;44;
67892;PMS7003;54688;52.376;16.744;2024-01-30T10:36:39;55;42;
67892;PMS7003;54688;52.376;16.744;2024-01-30T10:39:43;52;44;
67892;PMS7003;54688;52.376;16.744;2024-01-30T10:42:46;58;45;
67892;PMS7003;54688;52.376;16.744;2024-01-30T10:45:49;54;41;
67892;PMS7003;54688;52.376;16.744;2024-01-30T10:48:57;49;37;
67892;PMS7003;54688;52.376;16.744;2024-01-30T10:52:00;45;38;
67892;PMS7003;54688;52.376;16.744;2024-01-30T10:55:04;44;34;
67892;PMS7003;54688;52.376;16.744;2024-01-30T10:58:07;49;37;
67892;PMS7003;54688;52.376;16.744;2024-01-30T11:01:10;45;36;
67892;PMS7003;54688;52.376;16.744;2024-01-30T11:04:12;47;38;
67892;PMS7003;54688;52.376;16.744;2024-01-30T11:07:15;45;36;
67892;PMS7003;54688;52.376;16.744;2024-01-30T11:10:17;52;34;
67892;PMS7003;54688;52.376;16.744;2024-01-30T11:13:19;46;39;
67892;PMS7003;54688;52.376;16.744;2024-01-30T11:16:21;50;38;
67892;PMS7003;54688;52.376;16.744;2024-01-30T11:19:24;53;40;
67892;PMS7003;54688;52.376;16.744;2024-01-30T11:22:30;52;42;
67892;PMS7003;54688;52.376;16.744;2024-01-30T11:25:32;50;39;
67892;PMS7003;54688;52.376;16.744;2024-01-30T11:28:37;46;37;
67892;PMS7003;54688;52.376;16.744;2024-01-30T11:31:40;52;39;
67892;PMS7003;54688;52.376;16.744;2024-01-30T11:34:53;48;40;
67892;PMS7003;54688;52.376;16.744;2024-01-30T11:37:57;44;36;
67892;PMS7003;54688;52.376;16.744;2024-01-30T11:41:00;44;35;
67892;PMS7003;54688;52.376;16.744;2024-01-30T11:44:03;41;33;
67892;PMS7003;54688;52.376;16.744;2024-01-30T11:47:06;35;31;
67892;PMS7003;54688;52.376;16.744;2024-01-30T11:50:09;46;35;
67892;PMS7003;54688;52.376;16.744;2024-01-30T11:53:11;46;38;
67892;PMS7003;54688;52.376;16.744;2024-01-30T11:56:13;45;35;
67892;PMS7003;54688;52.376;16.744;2024-01-30T11:59:15;51;40;
67892;PMS7003;54688;52.376;16.744;2024-01-30T12:02:17;48;38;
67892;PMS7003;54688;52.376;16.744;2024-01-30T12:05:20;46;38;
67892;PMS7003;54688;52.376;16.744;2024-01-30T12:08:23;37;30;
67892;PMS7003;54688;52.376;16.744;2024-01-30T12:11:25;45;34;
67892;PMS7003;54688;52.376;16.744;2024-01-30T12:14:27;45;36;
67892;PMS7003;54688;52.376;16.744;2024-01-30T12:17:31;43;36;
67892;PMS7003;54688;52.376;16.744;2024-01-30T12:20:33;46;35;
67892;PMS7003;54688;52.376;16.744;2024-01-30T12:23:36;43;34;
67892;PMS7003;54688;52.376;16.744;2024-01-30T12:26:38;44;35;
67892;PMS7003;54688;52.376;16.744;2024-01-30T12:29:41;38;34;
67892;PMS7003;54688;52.376;16.744;2024-01-30T12:32:45;37;32;
67892;PMS7003;54688;52.376;16.744;2024-01-30T12:35:47;42;33;
67892;PMS7003;54688;52.376;16.744;2024-01-30T12:38:50;45;35;
67892;PMS7003;54688;52.376;16.744;2024-01-30T12:41:52;41;34;
67892;PMS7003;54688;52.376;16.744;2024-01-30T12:44:57;43;33;
67892;PMS7003;54688;52.376;16.744;2024-01-30T12:47:59;40;32;
67892;PMS7003;54688;52.376;16.744;2024-01-30T12:51:01;50;38;
67892;PMS7003;54688;52.376;16.744;2024-01-30T12:54:05;36;33;
67892;PMS7003;54688;52.376;16.744;2024-01-30T12:57:09;39;33;
67892;PMS7003;54688;52.376;16.744;2024-01-30T13:00:12;45;35;
67892;PMS7003;54688;52.376;16.744;2024-01-30T13:03:14;35;32;
67892;PMS7003;54688;52.376;16.744;2024-01-30T13:06:16;48;35;
67892;PMS7003;54688;52.376;16.744;2024-01-30T13:09:19;40;34;
67892;PMS7003;54688;52.376;16.744;2024-01-30T13:12:21;37;30;
67892;PMS7003;54688;52.376;16.744;2024-01-30T13:15:23;37;32;
67892;PMS7003;54688;52.376;16.744;2024-01-30T13:18:25;40;33;
67892;PMS7003;54688;52.376;16.744;2024-01-30T13:21:27;34;32;
67892;PMS7003;54688;52.376;16.744;2024-01-30T13:24:29;42;35;
67892;PMS7003;54688;52.376;16.744;2024-01-30T13:27:32;35;31;
67892;PMS7003;54688;52.376;16.744;2024-01-30T13:30:34;42;34;
67892;PMS7003;54688;52.376;16.744;2024-01-30T13:33:36;44;33;
67892;PMS7003;54688;52.376;16.744;2024-01-30T13:36:38;45;35;
67892;PMS7003;54688;52.376;16.744;2024-01-30T13:39:40;38;31;
67892;PMS7003;54688;52.376;16.744;2024-01-30T13:42:42;35;32;
67892;PMS7003;54688;52.376;16.744;2024-01-30T13:45:44;45;33;
67892;PMS7003;54688;52.376;16.744;2024-01-30T13:48:46;39;33;
67892;PMS7003;54688;52.376;16.744;2024-01-30T13:51:48;44;35;
67892;PMS7003;54688;52.376;16.744;2024-01-30T13:54:50;40;34;
67892;PMS7003;54688;52.376;16.744;2024-01-30T13:57:53;42;33;
67892;PMS7003;54688;52.376;16.744;2024-01-30T14:00:55;37;33;
67892;PMS7003;54688;52.376;16.744;2024-01-30T14:03:58;41;31;
67892;PMS7003;54688;52.376;16.744;2024-01-30T14:07:00;40;34;
67892;PMS7003;54688;52.376;16.744;2024-01-30T14:10:02;48;37;
67892;PMS7003;54688;52.376;16.744;2024-01-30T14:13:04;40;33;
67892;PMS7003;54688;52.376;16.744;2024-01-30T14:16:07;43;34;
67892;PMS7003;54688;52.376;16.744;2024-01-30T14:19:10;43;37;
67892;PMS7003;54688;52.376;16.744;2024-01-30T14:22:12;47;32;
67892;PMS7003;54688;52.376;16.744;2024-01-30T14:25:14;33;31;
67892;PMS7003;54688;52.376;16.744;2024-01-30T14:28:18;39;31;
67892;PMS7003;54688;52.376;16.744;2024-01-30T14:31:20;36;33;
67892;PMS7003;54688;52.376;16.744;2024-01-30T14:34:22;43;33;
67892;PMS7003;54688;52.376;16.744;2024-01-30T14:37:24;49;40;
67892;PMS7003;54688;52.376;16.744;2024-01-30T14:40:27;49;38;
67892;PMS7003;54688;52.376;16.744;2024-01-30T14:43:29;47;39;
67892;PMS7003;54688;52.376;16.744;2024-01-30T14:46:31;51;41;
67892;PMS7003;54688;52.376;16.744;2024-01-30T14:49:33;47;37;
67892;PMS7003;54688;52.376;16.744;2024-01-30T14:52:36;46;37;
67892;PMS7003;54688;52.376;16.744;2024-01-30T14:55:38;53;40;
67892;PMS7003;54688;52.376;16.744;2024-01-30T14:58:40;49;39;
67892;PMS7003;54688;52.376;16.744;2024-01-30T15:01:42;54;44;
67892;PMS7003;54688;52.376;16.744;2024-01-30T15:04:45;50;41;
67892;PMS7003;54688;52.376;16.744;2024-01-30T15:07:47;50;39;
67892;PMS7003;54688;52.376;16.744;2024-01-30T15:10:50;53;41;
67892;PMS7003;54688;52.376;16.744;2024-01-30T15:13:52;52;41;
67892;PMS7003;54688;52.376;16.744;2024-01-30T15:16:54;51;40;
67892;PMS7003;54688;52.376;16.744;2024-01-30T15:19:57;46;35;
67892;PMS7003;54688;52.376;16.744;2024-01-30T15:22:59;47;35;
67892;PMS7003;54688;52.376;16.744;2024-01-30T15:26:01;45;38;
67892;PMS7003;54688;52.376;16.744;2024-01-30T15:29:04;49;41;
67892;PMS7003;54688;52.376;16.744;2024-01-30T15:32:06;47;38;
67892;PMS7003;54688;52.376;16.744;2024-01-30T15:35:08;51;40;
67892;PMS7003;54688;52.376;16.744;2024-01-30T15:38:11;49;38;
67892;PMS7003;54688;52.376;16.744;2024-01-30T15:41:14;55;44;
67892;PMS7003;54688;52.376;16.744;2024-01-30T15:44:17;46;38;
67892;PMS7003;54688;52.376;16.744;2024-01-30T15:47:19;55;41;
67892;PMS7003;54688;52.376;16.744;2024-01-30T15:50:21;50;41;
67892;PMS7003;54688;52.376;16.744;2024-01-30T15:53:26;53;40;
67892;PMS7003;54688;52.376;16.744;2024-01-30T15:56:28;54;44;
67892;PMS7003;54688;52.376;16.744;2024-01-30T15:59:30;56;43;
67892;PMS7003;54688;52.376;16.744;2024-01-30T16:02:32;61;46;
67892;PMS7003;54688;52.376;16.744;2024-01-30T16:05:35;61;47;
67892;PMS7003;54688;52.376;16.744;2024-01-30T16:08:37;57;44;
67892;PMS7003;54688;52.376;16.744;2024-01-30T16:11:40;72;59;
67892;PMS7003;54688;52.376;16.744;2024-01-30T16:14:43;136;119;
67892;PMS7003;54688;52.376;16.744;2024-01-30T16:17:46;95;86;
67892;PMS7003;54688;52.376;16.744;2024-01-30T16:20:49;62;49;
67892;PMS7003;54688;52.376;16.744;2024-01-30T16:23:52;62;50;
67892;PMS7003;54688;52.376;16.744;2024-01-30T16:26:55;62;48;
67892;PMS7003;54688;52.376;16.744;2024-01-30T16:29:57;64;49;
67892;PMS7003;54688;52.376;16.744;2024-01-30T16:32:59;77;64;
67892;PMS7003;54688;52.376;16.744;2024-01-30T16:36:01;80;72;
67892;PMS7003;54688;52.376;16.744;2024-01-30T16:39:04;185;158;
67892;PMS7003;54688;52.376;16.744;2024-01-30T16:42:06;189;161;
67892;PMS7003;54688;52.376;16.744;2024-01-30T16:45:10;191;165;
67892;PMS7003;54688;52.376;16.744;2024-01-30T16:48:12;131;113;
67892;PMS7003;54688;52.376;16.744;2024-01-30T16:51:14;116;103;
67892;PMS7003;54688;52.376;16.744;2024-01-30T16:54:16;105;89;
67892;PMS7003;54688;52.376;16.744;2024-01-30T16:57:19;114;97;
67892;PMS7003;54688;52.376;16.744;2024-01-30T17:00:21;117;108;
67892;PMS7003;54688;52.376;16.744;2024-01-30T17:03:24;101;85;
67892;PMS7003;54688;52.376;16.744;2024-01-30T17:06:27;97;81;
67892;PMS7003;54688;52.376;16.744;2024-01-30T17:09:29;95;84;
67892;PMS7003;54688;52.376;16.744;2024-01-30T17:12:31;118;105;
67892;PMS7003;54688;52.376;16.744;2024-01-30T17:15:33;105;96;
67892;PMS7003;54688;52.376;16.744;2024-01-30T17:18:36;74;62;
67892;PMS7003;54688;52.376;16.744;2024-01-30T17:21:38;70;57;
67892;PMS7003;54688;52.376;16.744;2024-01-30T17:24:41;72;55;
67892;PMS7003;54688;52.376;16.744;2024-01-30T17:27:43;64;50;
67892;PMS7003;54688;52.376;16.744;2024-01-30T17:30:45;68;52;
67892;PMS7003;54688;52.376;16.744;2024-01-30T17:33:48;63;49;
67892;PMS7003;54688;52.376;16.744;2024-01-30T17:36:50;67;52;
67892;PMS7003;54688;52.376;16.744;2024-01-30T17:39:52;68;52;
67892;PMS7003;54688;52.376;16.744;2024-01-30T17:42:55;72;59;
67892;PMS7003;54688;52.376;16.744;2024-01-30T17:45:57;73;58;
67892;PMS7003;54688;52.376;16.744;2024-01-30T17:49:00;67;52;
67892;PMS7003;54688;52.376;16.744;2024-01-30T17:52:05;72;57;
67892;PMS7003;54688;52.376;16.744;2024-01-30T17:55:07;81;68;
67892;PMS7003;54688;52.376;16.744;2024-01-30T17:58:09;109;92;
67892;PMS7003;54688;52.376;16.744;2024-01-30T18:04:12;85;74;
67892;PMS7003;54688;52.376;16.744;2024-01-30T18:07:14;87;80;
67892;PMS7003;54688;52.376;16.744;2024-01-30T18:10:17;107;91;
67892;PMS7003;54688;52.376;16.744;2024-01-30T18:13:19;105;87;
67892;PMS7003;54688;52.376;16.744;2024-01-30T18:16:21;99;86;
67892;PMS7003;54688;52.376;16.744;2024-01-30T18:19:22;80;67;
67892;PMS7003;54688;52.376;16.744;2024-01-30T18:22:25;78;70;
67892;PMS7003;54688;52.376;16.744;2024-01-30T18:25:27;81;68;
67892;PMS7003;54688;52.376;16.744;2024-01-30T18:28:30;94;74;
67892;PMS7003;54688;52.376;16.744;2024-01-30T18:31:32;98;80;
67892;PMS7003;54688;52.376;16.744;2024-01-30T18:34:35;104;93;
67892;PMS7003;54688;52.376;16.744;2024-01-30T18:37:37;113;97;
67892;PMS7003;54688;52.376;16.744;2024-01-30T18:40:39;103;84;
67892;PMS7003;54688;52.376;16.744;2024-01-30T18:43:42;89;80;
67892;PMS7003;54688;52.376;16.744;2024-01-30T18:46:44;85;79;
67892;PMS7003;54688;52.376;16.744;2024-01-30T18:49:47;121;108;
67892;PMS7003;54688;52.376;16.744;2024-01-30T18:52:50;137;125;
67892;PMS7003;54688;52.376;16.744;2024-01-30T18:55:53;143;120;
67892;PMS7003;54688;52.376;16.744;2024-01-30T18:58:55;127;111;
67892;PMS7003;54688;52.376;16.744;2024-01-30T19:01:58;110;92;
67892;PMS7003;54688;52.376;16.744;2024-01-30T19:05:00;104;88;
67892;PMS7003;54688;52.376;16.744;2024-01-30T19:08:02;106;90;
67892;PMS7003;54688;52.376;16.744;2024-01-30T19:11:06;112;90;
67892;PMS7003;54688;52.376;16.744;2024-01-30T19:14:08;107;89;
67892;PMS7003;54688;52.376;16.744;2024-01-30T19:17:11;107;90;
67892;PMS7003;54688;52.376;16.744;2024-01-30T19:20:12;99;89;
67892;PMS7003;54688;52.376;16.744;2024-01-30T19:23:15;121;102;
67892;PMS7003;54688;52.376;16.744;2024-01-30T19:26:17;127;109;
67892;PMS7003;54688;52.376;16.744;2024-01-30T19:29:19;114;103;
67892;PMS7003;54688;52.376;16.744;2024-01-30T19:32:22;108;85;
67892;PMS7003;54688;52.376;16.744;2024-01-30T19:35:24;116;90;
67892;PMS7003;54688;52.376;16.744;2024-01-30T19:38:27;98;83;
67892;PMS7003;54688;52.376;16.744;2024-01-30T19:41:29;89;74;
67892;PMS7003;54688;52.376;16.744;2024-01-30T19:44:31;80;67;
67892;PMS7003;54688;52.376;16.744;2024-01-30T19:50:33;78;71;
67892;PMS7003;54688;52.376;16.744;2024-01-30T19:53:36;74;60;